Airfield :
LOGIN :

Register | Disclaimer

   EN    FR    IT 

 










Legend :    VFR   Marginal VFR   IFR   Intensive IFR   Very Intensive IFR
Visi :
Ceiling :
>= 8 km
>= 3000ft
5 to 8 km
1000 to 3000 ft
1500m to 5 km
500 to 1000 ft
800 to 1500m
200 to 500 ft
< 800m
< 200 ft
Symbols :   Thunderstorms  Fog  Heavy snow  Heavy precipitations  Wind > 20 kt
SIGMETs :     Misc.  Thunderstorms  Icing  Turbulence  Mountain Waves  Volcanic Ashes






- Airport Elevation : 297 ft
- IATA code : ODB


LEBA - Córdoba

CURRENT METAR :
  • 020230Z AUTO 00000KT 0150 FG VV001 06/06 Q1018

EXPIRED METARs :
  • 020200Z AUTO 00000KT 0050 FG VV001 06/06 Q1018
  • 020130Z AUTO 00000KT 0050 FG VV001 07/06 Q1018
  • 020100Z AUTO 00000KT 0050 FG VV001 06/06 Q1018
  • 020030Z AUTO VRB01KT 0200 FG VV004 06/06 Q1019
  • 020000Z AUTO 03001KT 0400 FG FEW007 07/06 Q1019

TAF TAF LEBA
Valid from the 02 at 03:00 until the 03 at 03:00 UTC


020200Z 0203/0303 08005KT CAVOK TX15/0215Z TN04/0303Z
TEMPO 0203/0209 4000 BR
PROB40
TEMPO 0203/0208 0200 FG VV001



MET'MAP, your aeronautical weather chart ! - Copyright ORBIFLY December 2007 - Disclaimer

ORBIFLY MET'MAP TEAM :

Programming & Development : Alexandra Zaïnal
Concept & original design : Baudouin d'Aumeries
Assistance for programming : Marc-Olivier Méhu
Technical & hardware support : Manuel Goepfert

Contact : metmap@orbifly.com




SOURCES & CREDITS :

   NOAA